Time;durP1;ratioP1;P1;durP2;ratioP2;P2;SDS_P1;SDS_P2;PMS_P1;PMS_P2;Temp;Humidity;BMP_temperature;BMP_pressure;BME280_temperature;BME280_humidity;BME280_pressure;Samples;Min_cycle;Max_cycle;Signal;HPM_P1;HPM_P2
2023/07/11 00:00:59;;;;;;;5.00;4.10;;;;;;;;;;4997318;28;20201;-81
2023/07/11 00:04:04;;;;;;;7.57;4.30;;;;;;;;;;4985957;28;20186;-81
2023/07/11 00:07:08;;;;;;;7.17;4.40;;;;;;;;;;4974280;28;20696;-81
2023/07/11 00:10:16;;;;;;;7.53;4.10;;;;;;;;;;4997028;28;20178;-81
2023/07/11 00:13:21;;;;;;;5.03;3.53;;;;;;;;;;4985407;28;20198;-81
2023/07/11 00:16:26;;;;;;;7.47;4.33;;;;;;;;;;4985825;28;20213;-81
2023/07/11 00:19:44;;;;;;;8.10;4.57;;;;;;;;;;4996763;28;20202;-81
2023/07/11 00:22:48;;;;;;;5.13;4.20;;;;;;;;;;4985523;28;20187;-81
2023/07/11 00:25:53;;;;;;;6.83;4.13;;;;;;;;;;4974324;28;20213;-81
2023/07/11 00:29:13;;;;;;;7.60;4.30;;;;;;;;;;4996343;28;20194;-81
2023/07/11 00:32:18;;;;;;;6.70;4.33;;;;;;;;;;4996686;28;20214;-81
2023/07/11 00:35:22;;;;;;;8.20;4.67;;;;;;;;;;4974539;28;20629;-81
2023/07/11 00:38:27;;;;;;;7.53;4.70;;;;;;;;;;4985932;28;20178;-81
2023/07/11 00:41:32;;;;;;;6.87;4.40;;;;;;;;;;4985767;28;20174;-81
2023/07/11 00:44:56;;;;;;;6.53;4.10;;;;;;;;;;4998166;28;20191;-81
2023/07/11 00:48:01;;;;;;;6.80;4.60;;;;;;;;;;4985727;28;20191;-81
2023/07/11 00:51:14;;;;;;;7.10;4.60;;;;;;;;;;4974481;28;20202;-81
2023/07/11 00:54:20;;;;;;;11.57;4.50;;;;;;;;;;4996877;28;20190;-81
2023/07/11 00:57:28;;;;;;;9.20;4.47;;;;;;;;;;4973676;28;20220;-81
2023/07/11 01:00:33;;;;;;;9.23;4.13;;;;;;;;;;4995994;28;20182;-81
2023/07/11 01:03:37;;;;;;;11.60;4.40;;;;;;;;;;4974326;28;20182;-81
2023/07/11 01:06:41;;;;;;;8.10;4.53;;;;;;;;;;4984666;28;20601;-81
2023/07/11 01:09:47;;;;;;;6.77;4.43;;;;;;;;;;4997366;28;20186;-81
2023/07/11 01:12:59;;;;;;;8.97;4.63;;;;;;;;;;4995592;28;20209;-81
2023/07/11 01:16:03;;;;;;;7.23;4.90;;;;;;;;;;4984406;28;20217;-81
2023/07/11 01:19:07;;;;;;;7.30;4.67;;;;;;;;;;4995807;28;20182;-81
2023/07/11 01:22:12;;;;;;;7.90;4.83;;;;;;;;;;4984424;28;20178;-81
2023/07/11 01:25:16;;;;;;;6.27;4.33;;;;;;;;;;4983391;28;20182;-81
2023/07/11 01:28:21;;;;;;;5.30;4.57;;;;;;;;;;4995031;28;20182;-81
2023/07/11 01:31:25;;;;;;;7.83;4.37;;;;;;;;;;4984447;28;20174;-81
2023/07/11 01:34:29;;;;;;;7.07;4.50;;;;;;;;;;4972639;28;20206;-81
2023/07/11 01:37:33;;;;;;;12.17;4.57;;;;;;;;;;4983953;28;20182;-81
2023/07/11 01:40:37;;;;;;;9.07;5.00;;;;;;;;;;4995712;28;20549;-81
2023/07/11 01:43:42;;;;;;;5.20;4.60;;;;;;;;;;4983847;28;20629;-81
2023/07/11 01:46:46;;;;;;;7.33;4.70;;;;;;;;;;4972542;28;20700;-81
2023/07/11 01:49:50;;;;;;;7.57;4.40;;;;;;;;;;4972631;28;20178;-81
2023/07/11 01:52:56;;;;;;;12.33;5.20;;;;;;;;;;4995629;28;20210;-81
2023/07/11 01:56:02;;;;;;;8.37;4.77;;;;;;;;;;4972716;28;20220;-82
2023/07/11 01:59:07;;;;;;;6.87;4.23;;;;;;;;;;4983452;28;20187;-81
2023/07/11 02:02:12;;;;;;;5.47;4.37;;;;;;;;;;4994896;28;20182;-81
2023/07/11 02:05:16;;;;;;;5.27;4.13;;;;;;;;;;4994493;28;20182;-81
2023/07/11 02:08:20;;;;;;;4.93;4.00;;;;;;;;;;4994488;28;20182;-81
2023/07/11 02:11:24;;;;;;;5.60;4.23;;;;;;;;;;4983651;28;20182;-81
2023/07/11 02:14:28;;;;;;;5.07;4.30;;;;;;;;;;4994903;28;20178;-81
2023/07/11 02:17:32;;;;;;;6.33;4.30;;;;;;;;;;4983409;28;20175;-81
2023/07/11 02:20:43;;;;;;;5.07;4.30;;;;;;;;;;4994619;28;20178;-81
2023/07/11 02:23:48;;;;;;;8.87;4.97;;;;;;;;;;4983127;28;20178;-81
2023/07/11 02:26:52;;;;;;;9.30;5.00;;;;;;;;;;4983252;28;20214;-81
2023/07/11 02:29:56;;;;;;;7.60;4.63;;;;;;;;;;4983332;28;20578;-81
2023/07/11 02:33:01;;;;;;;8.63;3.83;;;;;;;;;;4972237;28;20218;-81
2023/07/11 02:36:05;;;;;;;5.73;4.47;;;;;;;;;;4984222;28;20221;-81
2023/07/11 02:39:10;;;;;;;8.80;4.67;;;;;;;;;;4999401;28;20182;-81
2023/07/11 02:42:14;;;;;;;6.73;4.80;;;;;;;;;;4976304;28;20179;-81
2023/07/11 02:45:18;;;;;;;4.93;3.90;;;;;;;;;;4987196;28;20178;-81
2023/07/11 02:48:25;;;;;;;8.83;4.80;;;;;;;;;;4998013;28;20182;-81
2023/07/11 02:51:29;;;;;;;7.43;4.33;;;;;;;;;;4987107;28;20182;-81
2023/07/11 02:54:36;;;;;;;6.27;4.33;;;;;;;;;;4975785;28;20183;-82
2023/07/11 02:57:40;;;;;;;6.83;4.43;;;;;;;;;;4987004;28;20629;-81
2023/07/11 03:00:48;;;;;;;10.83;4.70;;;;;;;;;;4986676;28;20641;-81
2023/07/11 03:03:52;;;;;;;6.63;4.90;;;;;;;;;;4986475;28;20187;-81
2023/07/11 03:06:56;;;;;;;8.63;4.87;;;;;;;;;;4997160;28;20222;-81
2023/07/11 03:10:00;;;;;;;7.03;4.90;;;;;;;;;;4986552;28;20178;-81
2023/07/11 03:13:05;;;;;;;7.30;4.93;;;;;;;;;;4997364;28;20210;-81
2023/07/11 03:16:09;;;;;;;5.87;4.60;;;;;;;;;;4986529;28;20213;-81
2023/07/11 03:19:13;;;;;;;6.17;4.80;;;;;;;;;;4998020;28;20179;-81
2023/07/11 03:22:18;;;;;;;6.97;5.20;;;;;;;;;;4997499;28;20194;-81
2023/07/11 03:25:23;;;;;;;4.97;4.47;;;;;;;;;;4998037;28;20194;-81
2023/07/11 03:28:27;;;;;;;6.03;5.27;;;;;;;;;;4976469;28;20178;-81
2023/07/11 03:31:31;;;;;;;8.60;5.27;;;;;;;;;;4997682;28;20518;-81
2023/07/11 03:34:36;;;;;;;8.10;4.80;;;;;;;;;;4975504;28;20182;-82
2023/07/11 03:37:40;;;;;;;6.73;4.57;;;;;;;;;;4997949;28;20186;-81
2023/07/11 03:40:45;;;;;;;6.33;4.60;;;;;;;;;;4997706;28;20190;-81
2023/07/11 03:43:49;;;;;;;6.93;4.70;;;;;;;;;;4986708;28;20625;-81
2023/07/11 03:46:53;;;;;;;6.13;4.63;;;;;;;;;;4985614;28;20213;-81
2023/07/11 03:49:57;;;;;;;7.20;4.97;;;;;;;;;;4998280;28;20182;-81
2023/07/11 03:53:01;;;;;;;7.37;4.93;;;;;;;;;;4985922;28;20206;-81
2023/07/11 03:56:07;;;;;;;6.57;4.97;;;;;;;;;;4997480;28;20214;-82
2023/07/11 03:59:11;;;;;;;7.77;4.60;;;;;;;;;;4997579;28;20174;-82
2023/07/11 04:02:16;;;;;;;8.30;5.23;;;;;;;;;;4986025;28;20637;-82
2023/07/11 04:05:20;;;;;;;8.37;5.47;;;;;;;;;;4985544;28;20210;-82
2023/07/11 04:08:24;;;;;;;5.63;4.77;;;;;;;;;;5019549;23;20233;-86
2023/07/11 04:11:28;;;;;;;7.10;4.60;;;;;;;;;;4973286;28;20171;-85
2023/07/11 04:14:32;;;;;;;5.83;5.10;;;;;;;;;;4972935;28;20182;-89
2023/07/11 04:17:36;;;;;;;7.77;4.97;;;;;;;;;;4973023;28;20688;-89
2023/07/11 04:20:40;;;;;;;7.33;5.07;;;;;;;;;;4972908;28;20514;-89
2023/07/11 04:23:44;;;;;;;6.43;5.03;;;;;;;;;;4972698;28;20197;-89
2023/07/11 04:26:48;;;;;;;5.67;5.07;;;;;;;;;;4972562;28;20198;-89
2023/07/11 04:29:52;;;;;;;7.17;5.70;;;;;;;;;;4983916;28;20202;-89
2023/07/11 04:32:56;;;;;;;5.93;5.33;;;;;;;;;;4994818;28;20214;-89
2023/07/11 04:36:13;;;;;;;7.27;5.53;;;;;;;;;;4983585;28;20186;-89
2023/07/11 04:39:17;;;;;;;7.93;5.10;;;;;;;;;;4983593;28;20633;-89
2023/07/11 04:42:21;;;;;;;5.97;5.03;;;;;;;;;;4983448;28;20187;-90
2023/07/11 04:45:25;;;;;;;7.70;5.27;;;;;;;;;;4983671;28;20182;-90
2023/07/11 04:48:30;;;;;;;5.33;4.33;;;;;;;;;;4982913;28;20221;-90
2023/07/11 04:51:34;;;;;;;6.53;4.87;;;;;;;;;;4972388;28;20530;-90
2023/07/11 04:54:38;;;;;;;6.77;5.93;;;;;;;;;;4983569;28;20179;-90
2023/07/11 04:57:43;;;;;;;7.50;4.70;;;;;;;;;;4983021;28;20222;-90
2023/07/11 05:00:47;;;;;;;8.60;5.03;;;;;;;;;;4983098;28;20190;-90
2023/07/11 05:03:51;;;;;;;6.53;5.10;;;;;;;;;;4983120;28;20198;-90
2023/07/11 05:07:00;;;;;;;11.67;5.57;;;;;;;;;;4982859;28;20657;-90
2023/07/11 05:10:05;;;;;;;14.53;5.73;;;;;;;;;;4971840;28;20190;-90
2023/07/11 05:13:09;;;;;;;7.63;5.10;;;;;;;;;;4971927;28;20222;-90
2023/07/11 05:16:16;;;;;;;7.73;5.50;;;;;;;;;;4982885;28;20514;-90
2023/07/11 05:19:21;;;;;;;7.73;4.63;;;;;;;;;;4971992;28;20182;-90
2023/07/11 05:22:26;;;;;;;9.00;5.60;;;;;;;;;;4971724;28;20633;-90
2023/07/11 05:25:30;;;;;;;8.03;5.90;;;;;;;;;;4994410;28;20179;-90
2023/07/11 05:28:35;;;;;;;8.97;5.40;;;;;;;;;;4972111;28;20700;-90
2023/07/11 05:31:39;;;;;;;13.20;5.90;;;;;;;;;;4984714;28;20182;-81
2023/07/11 05:34:43;;;;;;;6.77;5.30;;;;;;;;;;4997705;28;20214;-81
2023/07/11 05:37:47;;;;;;;9.87;5.57;;;;;;;;;;4995228;28;20218;-81
2023/07/11 05:40:51;;;;;;;12.77;5.70;;;;;;;;;;4995565;28;20182;-81
2023/07/11 05:43:55;;;;;;;11.20;5.47;;;;;;;;;;4994443;28;20178;-81
2023/07/11 05:47:00;;;;;;;6.67;5.50;;;;;;;;;;4993561;28;20185;-82
2023/07/11 05:50:04;;;;;;;8.10;5.73;;;;;;;;;;4993765;28;20205;-82
2023/07/11 05:53:08;;;;;;;9.77;5.67;;;;;;;;;;4993629;28;20209;-81
2023/07/11 05:56:13;;;;;;;6.37;5.03;;;;;;;;;;4982827;28;20181;-81
2023/07/11 05:59:18;;;;;;;10.13;5.47;;;;;;;;;;4982256;28;20182;-81
2023/07/11 06:02:22;;;;;;;7.93;5.43;;;;;;;;;;4982428;28;20185;-81
2023/07/11 06:05:27;;;;;;;8.43;6.30;;;;;;;;;;4994242;28;20645;-82
2023/07/11 06:08:32;;;;;;;7.70;6.00;;;;;;;;;;4993446;28;20229;-81
2023/07/11 06:11:36;;;;;;;6.70;5.37;;;;;;;;;;4995465;28;20175;-81
2023/07/11 06:14:40;;;;;;;7.57;5.40;;;;;;;;;;4986318;28;20215;-81
2023/07/11 06:17:45;;;;;;;11.27;5.80;;;;;;;;;;4997553;28;20561;-81
2023/07/11 06:20:49;;;;;;;13.23;5.47;;;;;;;;;;4986472;28;20187;-82
2023/07/11 06:23:53;;;;;;;10.27;5.03;;;;;;;;;;4986487;28;20188;-81
2023/07/11 06:26:57;;;;;;;8.17;4.93;;;;;;;;;;4997453;28;20196;-82
2023/07/11 06:30:01;;;;;;;5.97;5.20;;;;;;;;;;4997213;28;20516;-81
2023/07/11 06:33:05;;;;;;;6.00;4.63;;;;;;;;;;4997549;28;20219;-81
2023/07/11 06:36:10;;;;;;;6.17;5.07;;;;;;;;;;4997264;28;20192;-81
2023/07/11 06:39:14;;;;;;;6.00;5.00;;;;;;;;;;4998089;28;20176;-80
2023/07/11 06:42:17;;;;;;;7.07;4.40;;;;;;;;;;4986471;28;20188;-80
2023/07/11 06:45:21;;;;;;;5.30;4.80;;;;;;;;;;4998218;28;20549;-82
2023/07/11 06:48:30;;;;;;;6.17;4.67;;;;;;;;;;4996889;28;20568;-81
2023/07/11 06:51:34;;;;;;;7.43;5.03;;;;;;;;;;4998029;28;20185;-80
2023/07/11 06:54:38;;;;;;;10.70;5.07;;;;;;;;;;4996813;28;20585;-81
2023/07/11 06:57:43;;;;;;;8.20;5.20;;;;;;;;;;4997393;28;20226;-86
2023/07/11 07:01:02;;;;;;;6.57;4.70;;;;;;;;;;4976416;28;20179;-81
2023/07/11 07:04:06;;;;;;;7.70;4.70;;;;;;;;;;4998328;28;20621;-81
2023/07/11 07:07:10;;;;;;;7.37;5.30;;;;;;;;;;4998430;28;20226;-82
2023/07/11 07:10:14;;;;;;;6.27;5.67;;;;;;;;;;4976269;28;20183;-81
2023/07/11 07:13:21;;;;;;;8.37;4.90;;;;;;;;;;5003282;28;20661;-81
2023/07/11 07:16:26;;;;;;;8.87;4.87;;;;;;;;;;5000105;28;20191;-84
2023/07/11 07:19:31;;;;;;;7.57;4.85;;;;;;;;;;5002437;28;20186;-84
2023/07/11 07:22:35;;;;;;;7.20;4.90;;;;;;;;;;4977816;28;20182;-84
2023/07/11 07:25:40;;;;;;;9.73;5.05;;;;;;;;;;4975725;28;20195;-81
2023/07/11 07:28:45;;;;;;;6.75;4.60;;;;;;;;;;4998550;28;20214;-82
2023/07/11 07:31:49;;;;;;;6.13;4.80;;;;;;;;;;4998905;28;20176;-84
2023/07/11 07:34:53;;;;;;;6.10;4.75;;;;;;;;;;4999178;28;20676;-82
2023/07/11 07:37:57;;;;;;;6.05;5.00;;;;;;;;;;4998014;28;20223;-82
2023/07/11 07:41:03;;;;;;;6.15;4.50;;;;;;;;;;4998051;28;20204;-82
2023/07/11 07:44:08;;;;;;;8.80;5.07;;;;;;;;;;4999266;28;20627;-82
2023/07/11 07:47:12;;;;;;;6.53;4.60;;;;;;;;;;4996509;28;20221;-82
2023/07/11 07:50:16;;;;;;;6.63;4.60;;;;;;;;;;4995938;28;20636;-81
2023/07/11 07:53:20;;;;;;;6.93;4.90;;;;;;;;;;4984545;28;20198;-82
2023/07/11 07:56:24;;;;;;;10.75;5.13;;;;;;;;;;4985200;28;20204;-82
2023/07/11 07:59:29;;;;;;;5.78;4.22;;;;;;;;;;4986216;28;20192;-82
2023/07/11 08:02:35;;;;;;;7.10;5.15;;;;;;;;;;4986660;28;20637;-82
2023/07/11 08:05:39;;;;;;;5.97;4.40;;;;;;;;;;4998920;28;20191;-82
2023/07/11 08:08:45;;;;;;;8.70;5.10;;;;;;;;;;4998221;28;20226;-82
2023/07/11 08:11:50;;;;;;;7.40;4.10;;;;;;;;;;5000407;28;20524;-82
2023/07/11 08:14:54;;;;;;;6.57;4.65;;;;;;;;;;4998809;28;20677;-82
2023/07/11 08:17:58;;;;;;;9.57;5.95;;;;;;;;;;5000148;28;20213;-82
2023/07/11 08:21:02;;;;;;;9.93;5.38;;;;;;;;;;4999686;28;20246;-82
2023/07/11 08:24:08;;;;;;;5.85;4.90;;;;;;;;;;4999393;28;20520;-82
2023/07/11 08:27:12;;;;;;;8.63;5.72;;;;;;;;;;4989167;28;20555;-82
2023/07/11 08:30:16;;;;;;;7.43;5.15;;;;;;;;;;4999065;28;20175;-82
2023/07/11 08:33:20;;;;;;;6.38;4.18;;;;;;;;;;4999451;28;20178;-80
2023/07/11 08:36:24;;;;;;;5.40;3.92;;;;;;;;;;4999653;28;20182;-80
2023/07/11 08:39:29;;;;;;;6.13;4.10;;;;;;;;;;4999471;28;20524;-79
2023/07/11 08:42:40;;;;;;;4.70;3.83;;;;;;;;;;4998750;28;20190;-80
2023/07/11 08:45:56;;;;;;;5.28;4.10;;;;;;;;;;4997193;28;20195;-80
2023/07/11 08:49:01;;;;;;;5.00;4.15;;;;;;;;;;4987228;28;20558;-80
2023/07/11 08:52:09;;;;;;;7.03;4.60;;;;;;;;;;4987811;28;20182;-80
2023/07/11 08:55:24;;;;;;;5.10;4.00;;;;;;;;;;4998828;28;20214;-80
2023/07/11 08:58:32;;;;;;;6.57;3.90;;;;;;;;;;5000309;28;20226;-80
2023/07/11 09:02:04;;;;;;;5.65;4.50;;;;;;;;;;5000145;28;20622;-80
2023/07/11 09:05:15;;;;;;;6.55;4.03;;;;;;;;;;4999644;28;20183;-80
2023/07/11 09:08:20;;;;;;;10.90;4.47;;;;;;;;;;4998358;28;20230;-80
2023/07/11 09:11:36;;;;;;;5.35;3.75;;;;;;;;;;4987105;28;20178;-80
2023/07/11 09:15:19;;;;;;;9.77;3.90;;;;;;;;;;4997015;28;20206;-80
2023/07/11 09:18:43;;;;;;;6.90;4.22;;;;;;;;;;4994569;28;20554;-80
2023/07/11 09:22:22;;;;;;;6.63;4.22;;;;;;;;;;4983617;28;20183;-80
2023/07/11 09:25:46;;;;;;;4.88;3.55;;;;;;;;;;4973751;28;20542;-80
2023/07/11 09:28:57;;;;;;;6.07;4.30;;;;;;;;;;4994274;28;20624;-80
2023/07/11 09:32:03;;;;;;;6.43;4.85;;;;;;;;;;4995407;28;20183;-80
2023/07/11 09:35:29;;;;;;;7.22;4.50;;;;;;;;;;4997244;28;20206;-80
2023/07/11 09:39:09;;;;;;;5.72;3.95;;;;;;;;;;4997622;28;20219;-80
2023/07/11 09:42:25;;;;;;;8.60;4.22;;;;;;;;;;4986867;28;20179;-80
2023/07/11 09:50:34;;;;;;;6.07;3.75;;;;;;;;;;4998970;28;20515;-80
2023/07/11 09:53:45;;;;;;;6.72;4.40;;;;;;;;;;4998318;28;20191;-81
2023/07/11 09:56:50;;;;;;;5.90;4.43;;;;;;;;;;4985889;28;20202;-80
2023/07/11 10:00:04;;;;;;;7.63;4.25;;;;;;;;;;4997614;28;20183;-81
2023/07/11 10:03:14;;;;;;;4.75;3.75;;;;;;;;;;4997374;28;20183;-81
2023/07/11 10:06:32;;;;;;;7.50;4.55;;;;;;;;;;4997940;28;20178;-80
2023/07/11 10:31:15;;;;;;;7.22;4.60;;;;;;;;;;4975788;28;20578;-89
2023/07/11 10:35:14;;;;;;;5.22;4.50;;;;;;;;;;4963460;28;20187;-86
2023/07/11 10:38:29;;;;;;;4.80;3.97;;;;;;;;;;4974795;28;20206;-87
2023/07/11 10:41:40;;;;;;;6.25;4.10;;;;;;;;;;4963320;28;20186;-87
2023/07/11 10:45:05;;;;;;;5.15;4.65;;;;;;;;;;4952117;28;20206;-88
2023/07/11 10:48:32;;;;;;;8.77;4.47;;;;;;;;;;4957816;28;20214;-89
2023/07/11 10:51:49;;;;;;;7.90;4.47;;;;;;;;;;4953780;28;20523;-88
2023/07/11 10:55:17;;;;;;;6.28;4.50;;;;;;;;;;4955971;28;20179;-87
2023/07/11 10:58:23;;;;;;;7.82;4.50;;;;;;;;;;4957740;28;20559;-88
2023/07/11 11:02:01;;;;;;;8.45;4.75;;;;;;;;;;4980982;28;20182;-88
2023/07/11 11:05:47;;;;;;;5.70;4.18;;;;;;;;;;4958632;28;20206;-88
2023/07/11 11:09:31;;;;;;;9.20;4.80;;;;;;;;;;4971725;28;20569;-88
2023/07/11 11:17:29;;;;;;;7.03;4.57;;;;;;;;;;4970693;28;20657;-88
2023/07/11 11:21:08;;;;;;;5.38;3.97;;;;;;;;;;4969637;28;20198;-88
2023/07/11 11:24:27;;;;;;;7.57;4.40;;;;;;;;;;4965542;28;20538;-88
2023/07/11 11:27:47;;;;;;;5.93;4.35;;;;;;;;;;4956637;28;20183;-88
2023/07/11 11:31:23;;;;;;;7.32;4.32;;;;;;;;;;4956377;28;20175;-88
2023/07/11 11:35:01;;;;;;;5.95;4.20;;;;;;;;;;4956272;28;20179;-88
2023/07/11 11:38:30;;;;;;;4.75;4.25;;;;;;;;;;4954836;28;20230;-88
2023/07/11 11:41:44;;;;;;;4.75;4.25;;;;;;;;;;4966760;28;20179;-88
2023/07/11 11:44:57;;;;;;;9.48;4.80;;;;;;;;;;4956569;28;20661;-86
2023/07/11 11:48:03;;;;;;;4.82;4.32;;;;;;;;;;4965315;28;20218;-85
2023/07/11 11:51:12;;;;;;;6.53;4.53;;;;;;;;;;4957047;28;20183;-86
2023/07/11 11:54:23;;;;;;;4.88;4.25;;;;;;;;;;4966116;28;20183;-90
2023/07/11 11:57:32;;;;;;;6.32;4.50;;;;;;;;;;4978984;28;20529;-85
2023/07/11 12:00:50;;;;;;;6.78;4.50;;;;;;;;;;4977333;28;20628;-87
2023/07/11 12:03:58;;;;;;;7.63;4.70;;;;;;;;;;4966298;28;20187;-87
2023/07/11 12:07:11;;;;;;;7.03;4.47;;;;;;;;;;4966633;28;20187;-87
2023/07/11 12:10:19;;;;;;;7.65;4.88;;;;;;;;;;4955274;28;20175;-88
2023/07/11 12:13:29;;;;;;;6.07;4.63;;;;;;;;;;4955063;28;20174;-87
2023/07/11 12:16:35;;;;;;;6.70;4.63;;;;;;;;;;4954946;28;20625;-88
2023/07/11 12:19:58;;;;;;;6.55;4.63;;;;;;;;;;4965088;28;20676;-88
2023/07/11 12:23:13;;;;;;;7.60;4.22;;;;;;;;;;4965790;28;20191;-88
2023/07/11 12:26:28;;;;;;;7.95;4.65;;;;;;;;;;4954337;28;20211;-87
2023/07/11 12:29:52;;;;;;;8.40;4.45;;;;;;;;;;4955862;28;20244;-87
2023/07/11 12:33:15;;;;;;;8.25;4.63;;;;;;;;;;4955851;28;20179;-88
2023/07/11 12:36:42;;;;;;;5.43;4.50;;;;;;;;;;4955499;28;20175;-87
2023/07/11 12:40:23;;;;;;;10.23;4.70;;;;;;;;;;4955443;28;20218;-88
2023/07/11 12:43:35;;;;;;;5.53;4.70;;;;;;;;;;4961153;28;20213;-88
2023/07/11 12:46:46;;;;;;;8.10;5.13;;;;;;;;;;4977105;28;20207;-87
2023/07/11 12:49:55;;;;;;;7.70;4.80;;;;;;;;;;4955578;28;20183;-87
2023/07/11 12:53:11;;;;;;;7.28;4.82;;;;;;;;;;4955412;28;20194;-87
2023/07/11 12:56:17;;;;;;;7.97;4.80;;;;;;;;;;4955879;28;20183;-87
2023/07/11 12:59:29;;;;;;;5.50;4.63;;;;;;;;;;4965849;28;20214;-88
2023/07/11 13:02:37;;;;;;;6.32;4.70;;;;;;;;;;4955788;28;20179;-88
2023/07/11 13:05:48;;;;;;;6.85;4.57;;;;;;;;;;4954485;28;20214;-88
2023/07/11 13:08:58;;;;;;;7.75;5.15;;;;;;;;;;4965477;28;20696;-87
2023/07/11 13:12:11;;;;;;;10.20;4.82;;;;;;;;;;4956649;28;20202;-88
2023/07/11 13:15:22;;;;;;;6.13;5.20;;;;;;;;;;4955374;28;20206;-88
2023/07/11 13:18:38;;;;;;;5.45;4.72;;;;;;;;;;4954205;28;20214;-88
2023/07/11 13:21:44;;;;;;;6.75;4.65;;;;;;;;;;4964107;28;20178;-88
2023/07/11 13:24:52;;;;;;;5.50;4.88;;;;;;;;;;4953559;28;20179;-88
2023/07/11 13:28:14;;;;;;;10.13;5.28;;;;;;;;;;4953712;28;20221;-88
2023/07/11 13:31:30;;;;;;;9.38;4.80;;;;;;;;;;4953473;28;20201;-88
2023/07/11 13:34:34;;;;;;;7.70;4.85;;;;;;;;;;4964675;28;20183;-87
2023/07/11 13:37:44;;;;;;;7.30;5.15;;;;;;;;;;4952814;28;20174;-87
2023/07/11 13:40:54;;;;;;;7.65;5.18;;;;;;;;;;4953409;28;20182;-88
2023/07/11 13:44:12;;;;;;;7.50;5.32;;;;;;;;;;4963921;28;20187;-87
2023/07/11 13:47:33;;;;;;;6.57;5.10;;;;;;;;;;4953180;28;20178;-87
2023/07/11 13:50:38;;;;;;;11.15;5.40;;;;;;;;;;4953027;28;20186;-88
2023/07/11 13:53:49;;;;;;;7.43;5.10;;;;;;;;;;4963674;28;20657;-87
2023/07/11 13:56:54;;;;;;;7.20;4.78;;;;;;;;;;4964215;28;20175;-88
2023/07/11 13:59:58;;;;;;;7.50;5.15;;;;;;;;;;4953300;28;20179;-88
2023/07/11 14:03:03;;;;;;;9.18;5.82;;;;;;;;;;4953217;28;20179;-87
2023/07/11 14:06:13;;;;;;;8.65;5.50;;;;;;;;;;4953243;28;20207;-87
2023/07/11 14:09:17;;;;;;;8.85;5.50;;;;;;;;;;4963993;28;20231;-87
2023/07/11 14:12:22;;;;;;;8.52;5.45;;;;;;;;;;4953269;28;20625;-87
2023/07/11 14:15:28;;;;;;;9.05;5.60;;;;;;;;;;4953451;28;20179;-87
2023/07/11 14:18:32;;;;;;;10.68;5.43;;;;;;;;;;4953667;28;20210;-87
2023/07/11 14:21:36;;;;;;;8.20;5.30;;;;;;;;;;4965077;28;20179;-87
2023/07/11 14:24:42;;;;;;;7.53;5.50;;;;;;;;;;4954369;28;20175;-87
2023/07/11 14:27:47;;;;;;;8.75;5.47;;;;;;;;;;4964831;28;20207;-87
2023/07/11 14:30:59;;;;;;;8.57;5.10;;;;;;;;;;4953054;28;20179;-86
2023/07/11 14:34:22;;;;;;;16.85;6.13;;;;;;;;;;4967068;28;20183;-86
2023/07/11 14:37:27;;;;;;;10.55;5.57;;;;;;;;;;4955998;28;20180;-87
2023/07/11 14:40:32;;;;;;;8.27;5.40;;;;;;;;;;4956556;28;20190;-86
2023/07/11 14:43:37;;;;;;;7.70;5.47;;;;;;;;;;4967764;28;20192;-87
2023/07/11 14:46:45;;;;;;;7.13;5.40;;;;;;;;;;4956391;28;20666;-87
2023/07/11 14:49:52;;;;;;;6.35;5.60;;;;;;;;;;4956254;28;20218;-86
2023/07/11 14:53:08;;;;;;;8.23;5.47;;;;;;;;;;4956399;28;20183;-87
2023/07/11 14:56:18;;;;;;;8.32;5.28;;;;;;;;;;4955538;28;20630;-87
2023/07/11 14:59:31;;;;;;;6.90;4.88;;;;;;;;;;4955105;28;20211;-86
2023/07/11 15:02:39;;;;;;;6.88;5.10;;;;;;;;;;4956501;28;20195;-87
2023/07/11 15:05:56;;;;;;;12.32;5.20;;;;;;;;;;4967299;28;20686;-86
2023/07/11 15:09:14;;;;;;;6.95;4.88;;;;;;;;;;4956429;28;20716;-87
2023/07/11 15:12:52;;;;;;;6.25;4.88;;;;;;;;;;4968571;28;20188;-86
2023/07/11 15:16:13;;;;;;;7.75;5.15;;;;;;;;;;4958574;28;20179;-86
2023/07/11 15:25:26;;;;;;;;;;;;;;;;;;;;;
2023/07/11 15:34:55;;;;;;;7.88;5.18;;;;;;;;;;4918215;29;20201;-86
2023/07/11 15:39:10;;;;;;;8.20;5.63;;;;;;;;;;4929915;29;20242;-87
2023/07/11 15:43:05;;;;;;;;;;;;;;;;;;;;;
2023/07/11 15:46:35;;;;;;;9.90;5.60;;;;;;;;;;4944448;28;20234;-87
2023/07/11 15:49:42;;;;;;;7.65;5.20;;;;;;;;;;4954224;28;20219;-86
2023/07/11 15:52:51;;;;;;;6.15;5.03;;;;;;;;;;4954439;28;20183;-86
2023/07/11 15:55:58;;;;;;;6.70;4.85;;;;;;;;;;4954525;28;20195;-86
2023/07/11 15:59:18;;;;;;;6.22;4.70;;;;;;;;;;4956914;28;20689;-86
2023/07/11 16:02:25;;;;;;;6.30;5.28;;;;;;;;;;4954473;28;20195;-86
2023/07/11 16:05:36;;;;;;;7.45;5.38;;;;;;;;;;4954280;28;20179;-86
2023/07/11 16:08:43;;;;;;;9.38;5.30;;;;;;;;;;4954453;28;20705;-87
2023/07/11 16:11:52;;;;;;;9.32;5.28;;;;;;;;;;4954509;28;20187;-87
2023/07/11 16:14:56;;;;;;;6.75;5.53;;;;;;;;;;4953734;28;20187;-87
2023/07/11 16:18:01;;;;;;;8.75;5.70;;;;;;;;;;4964420;28;20685;-87
2023/07/11 16:21:15;;;;;;;10.50;5.20;;;;;;;;;;4964856;28;20183;-87
2023/07/11 16:24:26;;;;;;;10.85;5.85;;;;;;;;;;4965512;28;20549;-86
2023/07/11 16:27:35;;;;;;;10.02;5.82;;;;;;;;;;4953472;28;20214;-86
2023/07/11 16:30:43;;;;;;;9.15;5.75;;;;;;;;;;4954129;28;20199;-87
2023/07/11 16:33:50;;;;;;;6.90;5.78;;;;;;;;;;4953441;28;20538;-86
2023/07/11 16:37:34;;;;;;;8.35;5.22;;;;;;;;;;4958585;28;20183;-86
2023/07/11 16:40:52;;;;;;;8.30;5.40;;;;;;;;;;4955574;28;20188;-86
2023/07/11 16:44:18;;;;;;;7.47;5.63;;;;;;;;;;4954605;28;20175;-86
2023/07/11 16:48:12;;;;;;;;;;;;;;;;;;;;;
2023/07/11 16:51:31;;;;;;;6.63;5.60;;;;;;;;;;4977764;28;20214;-87
2023/07/11 16:54:37;;;;;;;6.45;4.95;;;;;;;;;;4952516;28;20191;-86
2023/07/11 16:57:57;;;;;;;6.63;4.97;;;;;;;;;;4955398;28;20554;-86
2023/07/11 17:01:06;;;;;;;11.27;5.70;;;;;;;;;;4964002;28;20188;-87
2023/07/11 17:04:19;;;;;;;13.30;5.95;;;;;;;;;;4964414;28;20195;-87
2023/07/11 17:07:56;;;;;;;10.38;5.38;;;;;;;;;;4967839;28;20257;-87
2023/07/11 17:11:14;;;;;;;9.40;5.43;;;;;;;;;;4953700;28;20183;-87
2023/07/11 17:14:27;;;;;;;8.00;5.95;;;;;;;;;;4952847;28;20183;-87
2023/07/11 17:18:16;;;;;;;7.20;5.43;;;;;;;;;;4952805;28;20519;-86
2023/07/11 17:21:47;;;;;;;9.98;6.03;;;;;;;;;;4953336;28;20532;-86
2023/07/11 17:25:29;;;;;;;11.32;5.93;;;;;;;;;;4959925;28;20547;-87
2023/07/11 17:29:37;;;;;;;12.10;5.53;;;;;;;;;;4970594;28;20231;-86
2023/07/11 17:32:52;;;;;;;8.13;5.63;;;;;;;;;;4963627;28;20191;-86
2023/07/11 17:36:16;;;;;;;7.53;5.28;;;;;;;;;;4956695;28;20175;-86
2023/07/11 17:43:35;;;;;;;9.35;6.22;;;;;;;;;;4962873;28;20195;-86
2023/07/11 17:47:47;;;;;;;;;;;;;;;;;;;;;
2023/07/11 17:51:10;;;;;;;12.18;5.93;;;;;;;;;;4948561;28;20222;-86
2023/07/11 17:54:36;;;;;;;8.57;5.22;;;;;;;;;;4974375;28;20670;-86
2023/07/11 17:57:51;;;;;;;7.47;5.65;;;;;;;;;;4952028;28;20661;-86
2023/07/11 18:01:23;;;;;;;8.10;5.57;;;;;;;;;;4952994;28;20192;-86
2023/07/11 18:04:28;;;;;;;6.45;5.30;;;;;;;;;;4963416;28;20187;-88
2023/07/11 18:07:51;;;;;;;10.48;5.68;;;;;;;;;;4967343;28;20214;-85
2023/07/11 18:10:55;;;;;;;10.35;6.80;;;;;;;;;;4981491;28;20186;-86
2023/07/11 18:13:59;;;;;;;10.60;6.05;;;;;;;;;;4969672;28;20213;-85
2023/07/11 18:17:04;;;;;;;10.10;5.82;;;;;;;;;;4969284;28;20188;-86
2023/07/11 18:20:21;;;;;;;8.75;5.95;;;;;;;;;;4980340;28;20186;-87
2023/07/11 18:23:25;;;;;;;7.03;5.35;;;;;;;;;;4969467;28;20190;-87
2023/07/11 18:26:29;;;;;;;9.65;5.38;;;;;;;;;;4980368;28;20214;-87
2023/07/11 18:29:33;;;;;;;9.73;6.00;;;;;;;;;;4958053;28;20681;-87
2023/07/11 18:32:39;;;;;;;9.50;5.57;;;;;;;;;;4969064;28;20190;-87
2023/07/11 18:35:45;;;;;;;10.60;5.45;;;;;;;;;;4969233;28;20184;-87
2023/07/11 18:38:50;;;;;;;9.65;6.13;;;;;;;;;;4980170;28;20609;-87
2023/07/11 18:41:54;;;;;;;9.80;5.97;;;;;;;;;;4980303;28;20185;-86
2023/07/11 18:44:59;;;;;;;7.60;5.68;;;;;;;;;;4969303;28;20183;-87
2023/07/11 18:48:03;;;;;;;9.43;5.65;;;;;;;;;;4968813;28;20237;-87
2023/07/11 18:51:14;;;;;;;7.80;5.70;;;;;;;;;;4968905;28;20197;-88
2023/07/11 18:54:19;;;;;;;8.20;5.70;;;;;;;;;;4969561;28;20635;-87
2023/07/11 18:57:28;;;;;;;8.32;6.18;;;;;;;;;;4958938;28;20185;-87
2023/07/11 19:00:37;;;;;;;6.88;5.65;;;;;;;;;;4957932;28;20174;-87
2023/07/11 19:03:42;;;;;;;9.20;6.03;;;;;;;;;;4980246;28;20208;-87
2023/07/11 19:06:49;;;;;;;17.52;7.65;;;;;;;;;;4969125;28;20674;-88
2023/07/11 19:09:57;;;;;;;8.77;6.10;;;;;;;;;;4959688;28;20737;-87
2023/07/11 19:13:01;;;;;;;8.48;6.25;;;;;;;;;;4969269;28;20185;-87
2023/07/11 19:16:14;;;;;;;8.55;6.60;;;;;;;;;;4958070;28;20617;-87
2023/07/11 19:19:27;;;;;;;10.32;6.40;;;;;;;;;;4955691;28;20217;-87
2023/07/11 19:22:36;;;;;;;9.88;6.15;;;;;;;;;;4954777;28;20204;-87
2023/07/11 19:25:44;;;;;;;13.77;6.38;;;;;;;;;;4954946;28;20187;-87
2023/07/11 19:28:48;;;;;;;10.07;6.13;;;;;;;;;;4965641;28;20240;-87
2023/07/11 19:31:53;;;;;;;8.65;6.53;;;;;;;;;;4955161;28;20193;-87
2023/07/11 19:34:57;;;;;;;8.68;6.47;;;;;;;;;;4955225;28;20190;-88
2023/07/11 19:38:12;;;;;;;10.50;6.07;;;;;;;;;;4954768;28;20221;-88
2023/07/11 19:41:16;;;;;;;7.80;6.43;;;;;;;;;;4965702;28;20207;-87
2023/07/11 19:44:21;;;;;;;8.52;6.18;;;;;;;;;;4965715;28;20189;-87
2023/07/11 19:47:25;;;;;;;9.73;6.57;;;;;;;;;;4954109;28;20208;-87
2023/07/11 19:50:36;;;;;;;7.82;6.32;;;;;;;;;;4954544;28;20527;-87
2023/07/11 19:53:41;;;;;;;11.38;5.82;;;;;;;;;;4965162;28;20196;-87